Time;durP1;ratioP1;P1;durP2;ratioP2;P2;SDS_P1;SDS_P2;PMS_P1;PMS_P2;Temp;Humidity;BMP_temperature;BMP_pressure;BME280_temperature;BME280_humidity;BME280_pressure;Samples;Min_cycle;Max_cycle;Signal;HPM_P1;HPM_P2
2023/11/21 00:00:11;;;;;;;5.35;4.57;;;15.60;57.00;;;;;;344315;28;1039;-57
2023/11/21 00:00:22;;;;;;;6.07;4.55;;;15.60;57.00;;;;;;344306;28;1023;-57
2023/11/21 00:00:33;;;;;;;5.95;4.43;;;15.50;57.10;;;;;;344235;28;1203;-56
2023/11/21 00:00:43;;;;;;;5.50;4.30;;;15.50;57.10;;;;;;344288;28;960;-56
2023/11/21 00:00:54;;;;;;;5.00;4.05;;;15.60;57.10;;;;;;344178;28;1091;-56
2023/11/21 00:01:08;;;;;;;4.88;3.88;;;15.50;57.10;;;;;;344291;28;966;-57
2023/11/21 00:01:19;;;;;;;5.22;3.72;;;15.50;57.10;;;;;;344361;28;1050;-55
2023/11/21 00:01:29;;;;;;;5.17;3.90;;;15.50;57.00;;;;;;344250;28;1033;-57
2023/11/21 00:01:40;;;;;;;4.78;3.90;;;15.50;57.00;;;;;;344244;28;1095;-58
2023/11/21 00:01:51;;;;;;;6.82;4.05;;;15.50;57.10;;;;;;344288;28;976;-55
2023/11/21 00:02:04;;;;;;;7.35;4.03;;;15.50;57.10;;;;;;344213;28;1185;-57
2023/11/21 00:02:15;;;;;;;5.88;3.95;;;15.50;57.10;;;;;;344327;28;1015;-57
2023/11/21 00:02:27;;;;;;;5.28;3.88;;;15.50;57.10;;;;;;344329;28;1062;-55
2023/11/21 00:02:39;;;;;;;4.90;3.83;;;15.50;57.10;;;;;;344226;28;1238;-56
2023/11/21 00:02:50;;;;;;;5.28;3.83;;;15.50;57.20;;;;;;344311;28;1205;-57
2023/11/21 00:03:02;;;;;;;5.13;3.70;;;15.50;57.20;;;;;;344282;28;1007;-56
2023/11/21 00:03:14;;;;;;;4.72;3.80;;;15.50;57.20;;;;;;344251;28;1003;-56
2023/11/21 00:03:28;;;;;;;4.57;3.95;;;15.50;57.20;;;;;;344390;28;883;-56
2023/11/21 00:03:38;;;;;;;5.07;4.10;;;15.50;57.10;;;;;;344223;28;1111;-57
2023/11/21 00:03:49;;;;;;;5.15;4.18;;;15.50;57.10;;;;;;344291;28;1087;-55
2023/11/21 00:04:01;;;;;;;5.40;4.18;;;15.50;57.10;;;;;;344291;28;1085;-56
2023/11/21 00:04:12;;;;;;;5.07;3.92;;;15.50;57.10;;;;;;344269;28;844;-55
2023/11/21 00:04:23;;;;;;;5.75;3.95;;;15.50;57.10;;;;;;344303;28;1461;-56
2023/11/21 00:04:33;;;;;;;6.20;4.00;;;15.40;57.10;;;;;;344293;28;1415;-57
2023/11/21 00:04:45;;;;;;;6.10;4.15;;;15.50;57.10;;;;;;344244;28;995;-56
2023/11/21 00:04:56;;;;;;;5.20;4.10;;;15.50;57.20;;;;;;344340;28;1039;-55
2023/11/21 00:05:11;;;;;;;5.00;4.20;;;15.50;57.20;;;;;;344304;28;1100;-57
2023/11/21 00:05:23;;;;;;;4.50;3.85;;;15.50;57.30;;;;;;344254;28;940;-56
2023/11/21 00:05:35;;;;;;;4.70;3.72;;;15.40;57.30;;;;;;344299;28;840;-57
2023/11/21 00:05:45;;;;;;;4.97;3.75;;;15.40;57.30;;;;;;344296;28;1126;-56
2023/11/21 00:05:56;;;;;;;4.50;3.60;;;15.40;57.30;;;;;;344286;28;1003;-56
2023/11/21 00:06:08;;;;;;;4.57;3.63;;;15.40;57.20;;;;;;344261;28;1629;-59
2023/11/21 00:06:20;;;;;;;4.18;3.70;;;15.40;57.20;;;;;;344331;28;991;-55
2023/11/21 00:06:31;;;;;;;5.05;3.90;;;15.50;57.20;;;;;;344245;28;1040;-55
2023/11/21 00:06:41;;;;;;;5.28;3.97;;;15.40;57.20;;;;;;344322;28;876;-55
2023/11/21 00:06:52;;;;;;;5.23;4.00;;;15.40;57.20;;;;;;344290;28;955;-55
2023/11/21 00:07:03;;;;;;;4.20;3.70;;;15.40;57.30;;;;;;344178;28;1082;-56
2023/11/21 00:07:14;;;;;;;3.80;3.40;;;15.40;57.30;;;;;;344328;28;1023;-56
2023/11/21 00:07:25;;;;;;;4.45;3.38;;;15.40;57.30;;;;;;344359;28;995;-56
2023/11/21 00:07:37;;;;;;;5.10;3.35;;;15.40;57.30;;;;;;344212;28;1050;-56
2023/11/21 00:07:47;;;;;;;5.10;3.60;;;15.40;57.30;;;;;;344320;28;1107;-55
2023/11/21 00:07:58;;;;;;;4.65;3.83;;;15.40;57.40;;;;;;344329;28;866;-56
2023/11/21 00:08:10;;;;;;;4.20;3.70;;;15.40;57.40;;;;;;344285;28;1030;-56
2023/11/21 00:08:21;;;;;;;4.60;3.80;;;15.40;57.40;;;;;;344313;28;1098;-57
2023/11/21 00:08:31;;;;;;;4.75;3.80;;;15.40;57.40;;;;;;344355;28;852;-56
2023/11/21 00:08:42;;;;;;;5.82;3.97;;;15.40;57.40;;;;;;344196;28;1059;-56
2023/11/21 00:08:53;;;;;;;5.68;3.90;;;15.40;57.40;;;;;;344196;28;1087;-56
2023/11/21 00:09:04;;;;;;;5.50;4.17;;;15.40;57.50;;;;;;344321;28;893;-56
2023/11/21 00:09:15;;;;;;;5.13;4.13;;;15.40;57.50;;;;;;344322;28;1076;-56
2023/11/21 00:09:26;;;;;;;5.75;4.18;;;15.30;57.50;;;;;;344272;28;1230;-55
2023/11/21 00:09:37;;;;;;;5.32;3.75;;;15.40;57.50;;;;;;344284;28;1031;-56
2023/11/21 00:09:48;;;;;;;4.83;3.93;;;15.40;57.50;;;;;;344246;28;1020;-56
2023/11/21 00:09:58;;;;;;;4.65;4.10;;;15.30;57.50;;;;;;344295;28;1035;-56
2023/11/21 00:10:10;;;;;;;5.97;4.10;;;15.30;57.60;;;;;;344287;28;1067;-56
2023/11/21 00:10:21;;;;;;;6.05;3.90;;;15.40;57.50;;;;;;344233;28;1111;-57
2023/11/21 00:10:32;;;;;;;6.28;3.83;;;15.40;57.50;;;;;;344296;28;1102;-55
2023/11/21 00:10:42;;;;;;;5.00;3.83;;;15.30;57.60;;;;;;344274;28;1477;-57
2023/11/21 00:10:54;;;;;;;5.10;3.92;;;15.30;57.60;;;;;;344319;28;1006;-58
2023/11/21 00:11:05;;;;;;;4.28;3.85;;;15.30;57.60;;;;;;344255;28;926;-56
2023/11/21 00:11:16;;;;;;;4.38;3.95;;;15.30;57.60;;;;;;344297;28;817;-55
2023/11/21 00:11:26;;;;;;;4.25;3.85;;;15.30;57.70;;;;;;344326;28;905;-56
2023/11/21 00:11:37;;;;;;;4.65;4.03;;;15.30;57.70;;;;;;344314;28;1008;-56
2023/11/21 00:11:48;;;;;;;4.53;3.95;;;15.30;57.70;;;;;;344252;28;964;-56
2023/11/21 00:11:59;;;;;;;4.70;4.00;;;15.30;57.70;;;;;;344338;28;1758;-56
2023/11/21 00:12:10;;;;;;;4.38;3.78;;;15.30;57.70;;;;;;344253;28;1026;-57
2023/11/21 00:12:20;;;;;;;4.65;3.80;;;15.30;57.70;;;;;;344257;28;1587;-56
2023/11/21 00:12:33;;;;;;;4.45;3.75;;;15.30;57.70;;;;;;344184;28;1134;-56
2023/11/21 00:12:44;;;;;;;4.82;3.88;;;15.30;57.80;;;;;;344326;28;975;-56
2023/11/21 00:12:54;;;;;;;4.68;3.90;;;15.30;57.80;;;;;;344317;28;1000;-56
2023/11/21 00:13:05;;;;;;;4.80;3.80;;;15.30;57.80;;;;;;344242;28;1019;-57
2023/11/21 00:13:16;;;;;;;4.72;3.70;;;15.30;57.80;;;;;;344298;28;828;-55
2023/11/21 00:13:27;;;;;;;5.38;3.95;;;15.30;57.80;;;;;;344327;28;1000;-55
2023/11/21 00:13:38;;;;;;;5.57;4.13;;;15.30;57.80;;;;;;344299;28;1107;-55
2023/11/21 00:13:48;;;;;;;5.95;4.30;;;15.30;57.90;;;;;;344222;28;1037;-55
2023/11/21 00:13:59;;;;;;;5.65;4.20;;;15.30;57.90;;;;;;344241;28;960;-55
2023/11/21 00:14:15;;;;;;;5.28;4.00;;;15.30;57.90;;;;;;344267;28;964;-56
2023/11/21 00:14:25;;;;;;;5.18;4.10;;;15.30;57.90;;;;;;344216;28;997;-55
2023/11/21 00:14:38;;;;;;;5.80;4.20;;;15.30;57.90;;;;;;344276;28;1850;-55
2023/11/21 00:14:48;;;;;;;5.80;4.45;;;15.30;58.00;;;;;;344340;28;951;-57
2023/11/21 00:14:59;;;;;;;5.65;4.32;;;15.30;58.00;;;;;;344301;28;995;-56
2023/11/21 00:15:11;;;;;;;4.90;4.20;;;15.30;58.00;;;;;;344284;28;1174;-57
2023/11/21 00:15:21;;;;;;;4.97;4.18;;;15.30;58.00;;;;;;344295;28;908;-56
2023/11/21 00:15:32;;;;;;;4.80;4.10;;;15.30;57.90;;;;;;344290;28;1070;-57
2023/11/21 00:15:43;;;;;;;4.93;4.13;;;15.30;57.90;;;;;;344171;28;1696;-56
2023/11/21 00:15:54;;;;;;;5.38;4.05;;;15.30;58.00;;;;;;344299;28;837;-57
2023/11/21 00:16:05;;;;;;;5.10;4.00;;;15.30;58.00;;;;;;344192;28;948;-56
2023/11/21 00:16:15;;;;;;;4.75;3.90;;;15.30;58.00;;;;;;344299;28;1133;-56
2023/11/21 00:16:26;;;;;;;4.45;3.72;;;15.30;58.00;;;;;;344161;28;1237;-56
2023/11/21 00:16:37;;;;;;;5.17;3.87;;;15.30;58.00;;;;;;344307;28;1038;-56
2023/11/21 00:16:48;;;;;;;7.28;3.90;;;15.30;58.00;;;;;;344100;28;1528;-58
2023/11/21 00:16:59;;;;;;;6.97;4.10;;;15.30;57.90;;;;;;344285;28;972;-58
2023/11/21 00:17:10;;;;;;;7.03;4.20;;;15.30;57.90;;;;;;344172;28;2019;-58
2023/11/21 00:17:20;;;;;;;5.82;4.38;;;15.30;58.00;;;;;;344261;28;1322;-56
2023/11/21 00:17:31;;;;;;;6.32;4.57;;;15.30;58.00;;;;;;344296;28;907;-57
2023/11/21 00:17:42;;;;;;;5.53;4.25;;;15.30;57.90;;;;;;344249;28;1805;-55
2023/11/21 00:17:53;;;;;;;5.40;4.28;;;15.30;57.80;;;;;;344276;28;904;-56
2023/11/21 00:18:03;;;;;;;4.60;3.70;;;15.30;57.70;;;;;;344244;28;1090;-55
2023/11/21 00:18:14;;;;;;;5.22;3.70;;;15.30;57.70;;;;;;344175;28;1016;-55
2023/11/21 00:18:25;;;;;;;5.40;3.53;;;15.30;57.70;;;;;;344230;28;1099;-57
2023/11/21 00:18:36;;;;;;;6.50;3.97;;;15.30;57.70;;;;;;344201;28;1073;-57
2023/11/21 00:18:46;;;;;;;5.77;3.97;;;15.30;57.80;;;;;;344243;28;1107;-56
2023/11/21 00:18:57;;;;;;;5.93;3.88;;;15.30;57.80;;;;;;344216;28;1099;-56
2023/11/21 00:19:08;;;;;;;4.90;3.70;;;15.20;57.80;;;;;;344292;28;821;-56
2023/11/21 00:19:18;;;;;;;4.80;3.70;;;15.30;57.80;;;;;;344187;28;1753;-56
2023/11/21 00:19:29;;;;;;;4.40;3.67;;;15.30;57.90;;;;;;344302;28;1103;-54
2023/11/21 00:19:40;;;;;;;5.10;3.67;;;15.30;57.80;;;;;;344221;28;1071;-56
2023/11/21 00:19:53;;;;;;;5.22;3.80;;;15.30;57.80;;;;;;344257;28;1141;-56
2023/11/21 00:20:06;;;;;;;4.75;3.90;;;15.30;57.80;;;;;;344225;28;1080;-56
2023/11/21 00:20:17;;;;;;;5.22;3.58;;;15.30;57.80;;;;;;344238;28;1955;-56
2023/11/21 00:20:28;;;;;;;5.35;3.60;;;15.30;57.80;;;;;;344157;28;1031;-56
2023/11/21 00:20:38;;;;;;;5.10;3.78;;;15.30;57.80;;;;;;344309;28;976;-56
2023/11/21 00:20:49;;;;;;;4.88;3.95;;;15.30;57.90;;;;;;344225;28;1169;-56
2023/11/21 00:21:00;;;;;;;4.83;3.90;;;15.30;57.90;;;;;;344185;28;988;-55
2023/11/21 00:21:12;;;;;;;4.40;3.78;;;15.30;57.90;;;;;;344224;28;1111;-57
2023/11/21 00:21:23;;;;;;;4.72;3.97;;;15.30;57.90;;;;;;344281;28;1127;-56
2023/11/21 00:21:33;;;;;;;4.72;3.85;;;15.30;57.90;;;;;;344176;28;1437;-56
2023/11/21 00:21:44;;;;;;;4.88;3.80;;;15.30;58.00;;;;;;344268;28;961;-56
2023/11/21 00:21:56;;;;;;;4.97;3.80;;;15.30;58.00;;;;;;344290;28;952;-57
2023/11/21 00:22:07;;;;;;;4.57;3.90;;;15.30;58.00;;;;;;344255;28;900;-56
2023/11/21 00:22:18;;;;;;;4.80;3.80;;;15.30;58.00;;;;;;344335;28;952;-56
2023/11/21 00:22:28;;;;;;;4.22;3.63;;;15.30;58.00;;;;;;344282;28;951;-56
2023/11/21 00:22:40;;;;;;;4.65;3.70;;;15.20;58.00;;;;;;344229;28;1046;-60
2023/11/21 00:22:51;;;;;;;4.90;3.80;;;15.30;58.00;;;;;;344288;28;1102;-55
2023/11/21 00:23:02;;;;;;;5.25;3.90;;;15.20;58.00;;;;;;344260;28;964;-56
2023/11/21 00:23:12;;;;;;;5.30;3.96;;;15.20;58.00;;;;;;344208;28;1070;-56
2023/11/21 00:23:23;;;;;;;5.20;4.00;;;15.20;58.00;;;;;;344340;28;963;-56
2023/11/21 00:23:34;;;;;;;5.00;4.03;;;15.30;58.00;;;;;;344224;28;1099;-57
2023/11/21 00:23:45;;;;;;;4.65;4.03;;;15.30;58.00;;;;;;344214;28;1071;-56
2023/11/21 00:23:56;;;;;;;4.60;4.00;;;15.30;58.00;;;;;;344321;28;833;-56
2023/11/21 00:24:07;;;;;;;4.70;3.88;;;15.30;58.00;;;;;;344342;28;876;-56
2023/11/21 00:24:18;;;;;;;4.32;3.70;;;15.30;57.90;;;;;;344228;28;967;-59
2023/11/21 00:24:28;;;;;;;4.20;3.60;;;15.30;57.90;;;;;;344263;28;1024;-56
2023/11/21 00:24:39;;;;;;;4.73;3.70;;;15.30;57.80;;;;;;344226;28;1099;-55
2023/11/21 00:24:50;;;;;;;5.70;3.90;;;15.30;57.80;;;;;;344218;28;1178;-55
2023/11/21 00:25:03;;;;;;;6.68;4.00;;;15.30;57.80;;;;;;344257;28;1149;-56
2023/11/21 00:25:15;;;;;;;6.72;3.70;;;15.30;57.80;;;;;;344192;28;1039;-57
2023/11/21 00:25:25;;;;;;;5.70;3.63;;;15.20;57.80;;;;;;344306;28;1219;-56
2023/11/21 00:25:36;;;;;;;4.93;3.92;;;15.20;57.90;;;;;;344257;28;987;-56
2023/11/21 00:25:47;;;;;;;4.40;3.90;;;15.20;57.90;;;;;;344223;28;964;-56
2023/11/21 00:25:58;;;;;;;4.40;3.95;;;15.20;57.90;;;;;;344283;28;1103;-57
2023/11/21 00:26:09;;;;;;;4.30;3.80;;;15.20;57.90;;;;;;344280;28;948;-55
2023/11/21 00:26:20;;;;;;;4.30;3.63;;;15.20;57.90;;;;;;344310;28;1039;-55
2023/11/21 00:26:32;;;;;;;4.17;3.57;;;15.20;57.90;;;;;;344132;28;1177;-55
2023/11/21 00:26:42;;;;;;;4.15;3.50;;;15.20;57.90;;;;;;344337;28;869;-56
2023/11/21 00:26:53;;;;;;;4.53;3.60;;;15.20;57.90;;;;;;344374;28;864;-55
2023/11/21 00:27:04;;;;;;;4.82;3.80;;;15.20;57.90;;;;;;344222;28;1090;-56
2023/11/21 00:27:14;;;;;;;4.83;3.90;;;15.20;57.90;;;;;;344135;28;2563;-56
2023/11/21 00:27:25;;;;;;;4.75;3.95;;;15.20;58.00;;;;;;344294;28;896;-56
2023/11/21 00:27:36;;;;;;;4.70;3.80;;;15.20;58.00;;;;;;344284;28;1007;-56
2023/11/21 00:27:47;;;;;;;4.28;3.65;;;15.20;58.00;;;;;;344338;28;1035;-55
2023/11/21 00:27:58;;;;;;;4.45;3.63;;;15.20;58.10;;;;;;344161;28;1059;-56
2023/11/21 00:28:09;;;;;;;4.50;3.75;;;15.20;58.10;;;;;;344271;28;979;-57
2023/11/21 00:28:19;;;;;;;4.73;3.80;;;15.20;58.00;;;;;;344235;28;1555;-55
2023/11/21 00:28:30;;;;;;;5.40;3.85;;;15.20;58.00;;;;;;344238;28;1503;-55
2023/11/21 00:28:41;;;;;;;5.40;3.88;;;15.20;58.00;;;;;;344183;28;1056;-56
2023/11/21 00:28:52;;;;;;;5.68;3.95;;;15.20;58.00;;;;;;344358;28;876;-56
2023/11/21 00:29:02;;;;;;;4.88;3.80;;;15.20;58.00;;;;;;344303;28;983;-56
2023/11/21 00:29:13;;;;;;;4.88;3.80;;;15.20;58.10;;;;;;344224;28;1871;-56
2023/11/21 00:29:24;;;;;;;4.70;3.60;;;15.20;58.10;;;;;;344246;28;881;-56
2023/11/21 00:29:35;;;;;;;4.50;3.60;;;15.20;58.10;;;;;;344315;28;818;-56
2023/11/21 00:29:46;;;;;;;4.63;3.63;;;15.20;58.10;;;;;;344175;28;1658;-56
2023/11/21 00:29:56;;;;;;;5.25;3.97;;;15.20;58.10;;;;;;344218;28;1186;-56
2023/11/21 00:30:08;;;;;;;5.43;4.05;;;15.20;58.10;;;;;;344148;28;1591;-55
2023/11/21 00:30:21;;;;;;;4.90;3.90;;;15.20;58.10;;;;;;344306;28;1070;-56
2023/11/21 00:30:32;;;;;;;5.38;3.97;;;15.20;58.10;;;;;;344238;28;1103;-56
2023/11/21 00:30:42;;;;;;;5.38;4.10;;;15.20;58.10;;;;;;344294;28;968;-56
2023/11/21 00:30:53;;;;;;;5.03;3.92;;;15.20;58.10;;;;;;344211;28;1048;-59
2023/11/21 00:31:04;;;;;;;4.32;3.75;;;15.20;58.20;;;;;;344271;28;1711;-58
2023/11/21 00:31:15;;;;;;;4.53;3.70;;;15.20;58.20;;;;;;344274;28;1091;-56
2023/11/21 00:31:26;;;;;;;4.82;4.07;;;15.20;58.20;;;;;;344239;28;1082;-56
2023/11/21 00:31:37;;;;;;;5.00;4.17;;;15.20;58.20;;;;;;344278;28;801;-56
2023/11/21 00:31:48;;;;;;;4.92;4.06;;;15.20;58.20;;;;;;344230;28;907;-56
2023/11/21 00:31:58;;;;;;;4.83;3.90;;;15.20;58.20;;;;;;344210;28;1034;-56
2023/11/21 00:32:09;;;;;;;4.65;4.03;;;15.20;58.20;;;;;;344231;28;1095;-56
2023/11/21 00:32:20;;;;;;;5.10;4.40;;;15.20;58.20;;;;;;344314;28;817;-55
2023/11/21 00:32:31;;;;;;;5.55;4.40;;;15.20;58.20;;;;;;344213;28;1107;-57
2023/11/21 00:32:41;;;;;;;5.30;4.30;;;15.20;58.20;;;;;;344273;28;1023;-57
2023/11/21 00:32:52;;;;;;;6.22;4.07;;;15.20;58.20;;;;;;344301;28;999;-56
2023/11/21 00:33:04;;;;;;;6.00;4.22;;;15.20;58.20;;;;;;344157;28;1158;-56
2023/11/21 00:33:14;;;;;;;5.55;4.18;;;15.20;58.20;;;;;;344285;28;1476;-56
2023/11/21 00:33:25;;;;;;;5.47;4.17;;;15.20;58.20;;;;;;344263;28;1547;-56
2023/11/21 00:33:36;;;;;;;5.35;4.00;;;15.20;58.20;;;;;;344146;28;1308;-56
2023/11/21 00:33:47;;;;;;;5.65;4.03;;;15.20;58.20;;;;;;344260;28;1023;-56
2023/11/21 00:33:57;;;;;;;5.13;3.83;;;15.20;58.20;;;;;;344299;28;1939;-56
2023/11/21 00:34:08;;;;;;;5.30;3.80;;;15.20;58.20;;;;;;344170;28;1004;-55
2023/11/21 00:34:19;;;;;;;5.43;4.03;;;15.20;58.20;;;;;;344281;28;960;-56
2023/11/21 00:34:30;;;;;;;5.40;4.10;;;15.20;58.20;;;;;;344313;28;1038;-56
2023/11/21 00:34:42;;;;;;;4.97;3.95;;;15.20;58.20;;;;;;344151;28;992;-56
2023/11/21 00:34:54;;;;;;;4.65;4.10;;;15.20;58.10;;;;;;344281;28;1040;-56
2023/11/21 00:35:05;;;;;;;4.53;3.90;;;15.20;58.20;;;;;;344263;28;975;-57
2023/11/21 00:35:16;;;;;;;4.75;3.75;;;15.20;58.20;;;;;;344222;28;1374;-56
2023/11/21 00:35:27;;;;;;;5.05;3.83;;;15.20;58.20;;;;;;344338;28;821;-56
2023/11/21 00:35:37;;;;;;;4.83;3.70;;;15.20;58.20;;;;;;344254;28;984;-55
2023/11/21 00:35:48;;;;;;;4.93;3.83;;;15.20;58.20;;;;;;344149;28;1836;-56
2023/11/21 00:36:00;;;;;;;5.05;3.92;;;15.20;58.20;;;;;;344279;28;1078;-55
2023/11/21 00:36:11;;;;;;;5.18;4.13;;;15.20;58.20;;;;;;344278;28;1138;-56
2023/11/21 00:36:21;;;;;;;4.90;4.00;;;15.20;58.20;;;;;;344282;28;1317;-56
2023/11/21 00:36:32;;;;;;;4.63;3.80;;;15.20;58.20;;;;;;344171;28;1016;-55
2023/11/21 00:36:43;;;;;;;5.10;3.95;;;15.20;58.20;;;;;;344225;28;1430;-57
2023/11/21 00:36:54;;;;;;;5.15;3.97;;;15.20;58.20;;;;;;344255;28;956;-56
2023/11/21 00:37:04;;;;;;;5.20;4.03;;;15.20;58.20;;;;;;344242;28;983;-57
2023/11/21 00:37:15;;;;;;;4.73;3.93;;;15.20;58.20;;;;;;344202;28;1015;-56
2023/11/21 00:37:26;;;;;;;4.97;4.07;;;15.20;58.20;;;;;;344288;28;877;-57
2023/11/21 00:37:38;;;;;;;5.25;4.22;;;15.20;58.20;;;;;;344256;28;919;-56
2023/11/21 00:37:49;;;;;;;5.10;4.18;;;15.20;58.20;;;;;;344267;28;991;-56
2023/11/21 00:38:00;;;;;;;5.68;4.18;;;15.20;58.20;;;;;;344190;28;972;-55
2023/11/21 00:38:11;;;;;;;5.57;4.07;;;15.20;58.30;;;;;;344155;28;1473;-57
2023/11/21 00:38:21;;;;;;;6.55;4.40;;;15.20;58.30;;;;;;344246;28;1347;-56
2023/11/21 00:38:32;;;;;;;5.97;4.23;;;15.20;58.30;;;;;;344208;28;1095;-56
2023/11/21 00:38:43;;;;;;;6.47;4.15;;;15.20;58.30;;;;;;344181;28;1048;-58
2023/11/21 00:38:53;;;;;;;5.55;4.10;;;15.20;58.30;;;;;;344220;28;1039;-56
2023/11/21 00:39:05;;;;;;;5.22;4.30;;;15.20;58.30;;;;;;344275;28;857;-56
2023/11/21 00:39:16;;;;;;;5.57;4.45;;;15.20;58.30;;;;;;344299;28;869;-56
2023/11/21 00:39:27;;;;;;;6.00;4.40;;;15.20;58.30;;;;;;344143;28;1648;-55
2023/11/21 00:39:38;;;;;;;6.33;4.23;;;15.20;58.30;;;;;;344264;28;1070;-56
2023/11/21 00:39:48;;;;;;;6.38;3.97;;;15.20;58.30;;;;;;344258;28;1944;-56
2023/11/21 00:39:59;;;;;;;6.40;4.22;;;15.20;58.30;;;;;;344319;28;1031;-56
2023/11/21 00:40:10;;;;;;;6.70;4.53;;;15.20;58.30;;;;;;344099;28;1099;-56
2023/11/21 00:40:22;;;;;;;5.88;4.43;;;15.20;58.30;;;;;;344155;28;1906;-56
2023/11/21 00:40:33;;;;;;;5.63;4.20;;;15.20;58.30;;;;;;344330;28;845;-56
2023/11/21 00:40:44;;;;;;;5.03;4.20;;;15.20;58.30;;;;;;344279;28;1200;-56
2023/11/21 00:40:56;;;;;;;5.23;4.40;;;15.20;58.30;;;;;;344332;28;956;-56
2023/11/21 00:41:07;;;;;;;5.54;4.22;;;15.20;58.40;;;;;;344154;28;1022;-56
2023/11/21 00:41:18;;;;;;;5.65;4.20;;;15.20;58.50;;;;;;344254;28;1110;-55
2023/11/21 00:41:28;;;;;;;5.57;4.27;;;15.20;58.50;;;;;;344233;28;991;-56
2023/11/21 00:41:39;;;;;;;6.07;4.37;;;15.20;58.40;;;;;;344266;28;1158;-57
2023/11/21 00:41:51;;;;;;;6.03;4.22;;;15.20;58.40;;;;;;344297;28;1042;-56
2023/11/21 00:42:04;;;;;;;5.95;4.15;;;15.20;58.30;;;;;;344205;28;995;-56
2023/11/21 00:42:15;;;;;;;5.07;4.43;;;15.20;58.50;;;;;;344265;28;1115;-56
2023/11/21 00:42:26;;;;;;;5.03;4.50;;;15.20;58.60;;;;;;344258;28;1080;-57
2023/11/21 00:42:36;;;;;;;4.85;4.35;;;15.20;58.50;;;;;;344216;28;1326;-55
2023/11/21 00:42:47;;;;;;;4.50;4.10;;;15.20;58.40;;;;;;344158;28;1158;-55
2023/11/21 00:42:58;;;;;;;4.60;4.13;;;15.20;58.30;;;;;;344259;28;983;-56
2023/11/21 00:43:09;;;;;;;4.93;4.32;;;15.20;58.30;;;;;;344176;28;1050;-56
2023/11/21 00:43:20;;;;;;;5.13;4.47;;;15.20;58.30;;;;;;344210;28;1333;-56
2023/11/21 00:43:30;;;;;;;5.10;4.50;;;15.20;58.30;;;;;;344320;28;821;-56
2023/11/21 00:43:41;;;;;;;5.25;4.38;;;15.20;58.20;;;;;;344176;28;972;-56
2023/11/21 00:43:52;;;;;;;5.55;4.30;;;15.20;58.20;;;;;;344286;28;892;-56
2023/11/21 00:44:03;;;;;;;5.50;4.27;;;15.30;58.20;;;;;;344242;28;1121;-56
2023/11/21 00:44:14;;;;;;;5.45;4.43;;;15.30;58.10;;;;;;344275;28;889;-55
2023/11/21 00:44:24;;;;;;;5.28;4.30;;;15.30;58.10;;;;;;344167;28;1482;-55
2023/11/21 00:44:39;;;;;;;5.05;4.10;;;15.30;58.10;;;;;;344140;28;1844;-56
2023/11/21 00:44:50;;;;;;;4.97;4.00;;;15.30;58.10;;;;;;344252;28;896;-56
2023/11/21 00:45:00;;;;;;;5.18;4.05;;;15.30;58.10;;;;;;344193;28;1420;-56
2023/11/21 00:45:11;;;;;;;6.22;4.13;;;15.30;58.10;;;;;;344215;28;1019;-55
2023/11/21 00:45:22;;;;;;;7.10;4.35;;;15.30;58.20;;;;;;344177;28;959;-56
2023/11/21 00:45:32;;;;;;;7.53;4.37;;;15.30;58.20;;;;;;344347;28;880;-54
2023/11/21 00:45:43;;;;;;;7.15;4.60;;;15.20;58.20;;;;;;344246;28;1008;-55
2023/11/21 00:45:54;;;;;;;8.25;4.75;;;15.30;58.10;;;;;;344205;28;1099;-56
2023/11/21 00:46:07;;;;;;;8.55;4.80;;;15.30;58.20;;;;;;344301;28;887;-56
2023/11/21 00:46:18;;;;;;;8.18;4.70;;;15.30;58.20;;;;;;344233;28;960;-55
2023/11/21 00:46:29;;;;;;;6.35;4.60;;;15.30;58.20;;;;;;344231;28;980;-55
2023/11/21 00:46:39;;;;;;;6.32;4.80;;;15.30;58.20;;;;;;344249;28;1189;-54
2023/11/21 00:46:50;;;;;;;6.63;4.77;;;15.30;58.20;;;;;;344178;28;2363;-56
2023/11/21 00:47:02;;;;;;;6.45;4.68;;;15.20;58.20;;;;;;344240;28;1100;-57
2023/11/21 00:47:13;;;;;;;6.22;4.28;;;15.20;58.20;;;;;;344269;28;1003;-57
2023/11/21 00:47:24;;;;;;;5.07;3.97;;;15.30;58.20;;;;;;344151;28;1067;-56
2023/11/21 00:47:34;;;;;;;6.40;4.30;;;15.20;58.20;;;;;;344298;28;808;-55
2023/11/21 00:47:45;;;;;;;6.28;4.40;;;15.30;58.20;;;;;;344230;28;980;-56
2023/11/21 00:47:57;;;;;;;6.13;4.43;;;15.30;58.20;;;;;;344115;28;1095;-56
2023/11/21 00:48:08;;;;;;;6.07;4.60;;;15.30;58.20;;;;;;344260;28;1019;-55
2023/11/21 00:48:19;;;;;;;6.05;4.60;;;15.30;58.20;;;;;;344291;28;1016;-55
2023/11/21 00:48:30;;;;;;;5.43;4.38;;;15.30;58.20;;;;;;344163;28;1043;-56
2023/11/21 00:48:40;;;;;;;4.77;4.20;;;15.30;58.20;;;;;;344235;28;1034;-57
2023/11/21 00:48:52;;;;;;;6.15;4.53;;;15.30;58.20;;;;;;344216;28;1083;-56
2023/11/21 00:49:04;;;;;;;6.88;4.80;;;15.30;58.10;;;;;;344183;28;1054;-56
2023/11/21 00:49:14;;;;;;;6.88;4.60;;;15.30;58.20;;;;;;344304;28;1019;-56
2023/11/21 00:49:25;;;;;;;5.75;4.43;;;15.30;58.10;;;;;;344272;28;1500;-55
2023/11/21 00:49:36;;;;;;;5.55;4.53;;;15.30;58.20;;;;;;344107;28;960;-55
2023/11/21 00:49:46;;;;;;;5.63;4.77;;;15.30;58.20;;;;;;344241;28;888;-55
2023/11/21 00:49:57;;;;;;;5.50;4.97;;;15.30;58.20;;;;;;344278;28;885;-57
2023/11/21 00:50:09;;;;;;;5.43;4.90;;;15.30;58.20;;;;;;344044;28;1694;-57
2023/11/21 00:50:22;;;;;;;5.88;4.93;;;15.30;58.20;;;;;;344224;28;1217;-55
2023/11/21 00:50:33;;;;;;;6.00;5.05;;;15.30;58.20;;;;;;344243;28;1185;-56
2023/11/21 00:50:44;;;;;;;6.25;5.07;;;15.30;58.30;;;;;;344161;28;924;-55
2023/11/21 00:50:56;;;;;;;5.70;5.03;;;15.30;58.30;;;;;;344293;28;979;-56
2023/11/21 00:51:07;;;;;;;5.78;5.10;;;15.30;58.20;;;;;;344234;28;1046;-56
2023/11/21 00:51:17;;;;;;;5.88;5.10;;;15.30;58.20;;;;;;344116;28;1103;-56
2023/11/21 00:51:28;;;;;;;6.17;4.87;;;15.30;58.20;;;;;;344242;28;1169;-56
2023/11/21 00:51:39;;;;;;;6.28;4.70;;;15.30;58.30;;;;;;344174;28;1119;-56
2023/11/21 00:51:49;;;;;;;6.05;4.53;;;15.30;58.30;;;;;;344184;28;1043;-56
2023/11/21 00:52:00;;;;;;;5.55;4.40;;;15.30;58.30;;;;;;344229;28;1071;-55
2023/11/21 00:52:11;;;;;;;5.70;4.47;;;15.20;58.30;;;;;;344244;28;888;-57
2023/11/21 00:52:21;;;;;;;5.70;4.57;;;15.30;58.30;;;;;;344185;28;1016;-55
2023/11/21 00:52:32;;;;;;;5.63;4.55;;;15.30;58.30;;;;;;344178;28;1083;-55
2023/11/21 00:52:43;;;;;;;5.57;4.53;;;15.20;58.20;;;;;;344152;28;1566;-55
2023/11/21 00:52:54;;;;;;;5.60;4.60;;;15.30;58.30;;;;;;344172;28;908;-56
2023/11/21 00:53:04;;;;;;;5.38;4.45;;;15.30;58.30;;;;;;344292;28;837;-56
2023/11/21 00:53:15;;;;;;;5.35;4.30;;;15.20;58.30;;;;;;344235;28;991;-56
2023/11/21 00:53:26;;;;;;;6.13;4.25;;;15.20;58.30;;;;;;344211;28;916;-55
2023/11/21 00:53:37;;;;;;;6.10;4.22;;;15.20;58.30;;;;;;344242;28;991;-56
2023/11/21 00:53:48;;;;;;;5.83;4.17;;;15.30;58.30;;;;;;344183;28;1229;-56
2023/11/21 00:53:58;;;;;;;5.15;4.28;;;15.20;58.30;;;;;;344184;28;928;-55
2023/11/21 00:54:09;;;;;;;5.40;4.50;;;15.20;58.30;;;;;;344220;28;1023;-57
2023/11/21 00:54:20;;;;;;;5.30;4.45;;;15.20;58.30;;;;;;344283;28;1078;-56
2023/11/21 00:54:30;;;;;;;4.90;4.32;;;15.20;58.30;;;;;;344101;28;1197;-56
2023/11/21 00:54:42;;;;;;;5.53;4.43;;;15.20;58.30;;;;;;344209;28;1008;-56
2023/11/21 00:54:53;;;;;;;5.97;4.47;;;15.20;58.40;;;;;;344250;28;1140;-56
2023/11/21 00:55:07;;;;;;;5.82;4.30;;;15.20;58.30;;;;;;344188;28;979;-56
2023/11/21 00:55:18;;;;;;;5.43;4.28;;;15.20;58.40;;;;;;344241;28;1078;-55
2023/11/21 00:55:29;;;;;;;5.10;4.20;;;15.20;58.40;;;;;;344222;28;1091;-56
2023/11/21 00:55:40;;;;;;;5.05;4.38;;;15.20;58.40;;;;;;344198;28;1058;-56
2023/11/21 00:55:56;;;;;;;5.80;4.30;;;15.20;58.50;;;;;;344252;28;880;-56
2023/11/21 00:56:08;;;;;;;5.88;4.18;;;15.20;58.50;;;;;;344265;28;1073;-56
2023/11/21 00:56:19;;;;;;;5.03;4.07;;;15.20;58.60;;;;;;344186;28;933;-56
2023/11/21 00:56:30;;;;;;;4.65;4.07;;;15.20;58.50;;;;;;344200;28;1087;-56
2023/11/21 00:56:40;;;;;;;4.65;4.07;;;15.20;58.50;;;;;;344232;28;908;-55
2023/11/21 00:56:51;;;;;;;4.75;4.18;;;15.20;58.50;;;;;;344235;28;1533;-55
2023/11/21 00:57:03;;;;;;;4.80;4.27;;;15.20;58.50;;;;;;344063;28;1323;-56
2023/11/21 00:57:14;;;;;;;5.00;4.50;;;15.20;58.60;;;;;;344234;28;1058;-56
2023/11/21 00:57:25;;;;;;;5.55;4.45;;;15.20;58.50;;;;;;344266;28;939;-57
2023/11/21 00:57:35;;;;;;;6.30;4.50;;;15.20;58.50;;;;;;344215;28;952;-56
2023/11/21 00:57:46;;;;;;;6.03;4.40;;;15.20;58.50;;;;;;344164;28;1091;-56
2023/11/21 00:57:58;;;;;;;5.30;4.20;;;15.20;58.50;;;;;;344210;28;1387;-55
2023/11/21 00:58:10;;;;;;;5.18;4.20;;;15.20;58.60;;;;;;344250;28;857;-56
2023/11/21 00:58:20;;;;;;;5.20;4.00;;;15.20;58.60;;;;;;344258;28;1003;-55
2023/11/21 00:58:31;;;;;;;4.82;3.95;;;15.20;58.60;;;;;;344145;28;1023;-56
2023/11/21 00:58:43;;;;;;;4.60;3.90;;;15.20;58.60;;;;;;344212;28;1342;-55
2023/11/21 00:58:54;;;;;;;4.88;4.20;;;15.20;58.60;;;;;;344067;28;1328;-56
2023/11/21 00:59:05;;;;;;;5.65;4.30;;;15.20;58.60;;;;;;344147;28;1471;-56
2023/11/21 00:59:16;;;;;;;6.38;4.53;;;15.20;58.70;;;;;;344137;28;1252;-56
2023/11/21 00:59:26;;;;;;;6.10;4.57;;;15.20;58.70;;;;;;344237;28;1185;-56